sensor_id;sensor_type;location;lat;lon;timestamp;temperature;humidity
41664;DHT22;27353;50.906;7.248;2022-12-20T00:01:14;8.60;99.90
41664;DHT22;27353;50.906;7.248;2022-12-20T00:03:40;8.50;99.90
41664;DHT22;27353;50.906;7.248;2022-12-20T00:06:06;8.50;99.90
41664;DHT22;27353;50.906;7.248;2022-12-20T00:08:32;8.60;99.90
41664;DHT22;27353;50.906;7.248;2022-12-20T00:11:00;8.60;99.90
41664;DHT22;27353;50.906;7.248;2022-12-20T00:13:26;8.60;99.90
41664;DHT22;27353;50.906;7.248;2022-12-20T00:16:13;8.80;99.90
41664;DHT22;27353;50.906;7.248;2022-12-20T00:18:39;8.80;99.90
41664;DHT22;27353;50.906;7.248;2022-12-20T00:21:07;8.80;99.90
41664;DHT22;27353;50.906;7.248;2022-12-20T00:23:33;8.80;99.90
41664;DHT22;27353;50.906;7.248;2022-12-20T00:26:04;8.80;99.90
41664;DHT22;27353;50.906;7.248;2022-12-20T00:28:31;8.80;99.90
41664;DHT22;27353;50.906;7.248;2022-12-20T00:30:57;8.80;99.90
41664;DHT22;27353;50.906;7.248;2022-12-20T00:33:23;8.90;99.90
41664;DHT22;27353;50.906;7.248;2022-12-20T00:35:49;8.90;99.90
41664;DHT22;27353;50.906;7.248;2022-12-20T00:38:14;8.80;99.90
41664;DHT22;27353;50.906;7.248;2022-12-20T00:40:40;8.80;99.90
41664;DHT22;27353;50.906;7.248;2022-12-20T00:43:05;8.70;99.90
41664;DHT22;27353;50.906;7.248;2022-12-20T00:45:31;8.70;99.90
41664;DHT22;27353;50.906;7.248;2022-12-20T00:47:56;8.70;99.90
41664;DHT22;27353;50.906;7.248;2022-12-20T00:50:22;8.70;99.90
41664;DHT22;27353;50.906;7.248;2022-12-20T00:52:48;8.70;99.90
41664;DHT22;27353;50.906;7.248;2022-12-20T00:55:13;8.70;99.90
41664;DHT22;27353;50.906;7.248;2022-12-20T00:57:39;8.70;99.90
41664;DHT22;27353;50.906;7.248;2022-12-20T01:00:05;8.70;99.90
41664;DHT22;27353;50.906;7.248;2022-12-20T01:02:31;8.60;99.90
41664;DHT22;27353;50.906;7.248;2022-12-20T01:04:57;8.50;99.90
41664;DHT22;27353;50.906;7.248;2022-12-20T01:07:22;8.50;99.90
41664;DHT22;27353;50.906;7.248;2022-12-20T01:09:49;8.40;99.90
41664;DHT22;27353;50.906;7.248;2022-12-20T01:12:15;8.40;99.90
41664;DHT22;27353;50.906;7.248;2022-12-20T01:14:40;8.40;99.90
41664;DHT22;27353;50.906;7.248;2022-12-20T01:17:06;8.30;99.90
41664;DHT22;27353;50.906;7.248;2022-12-20T01:19:32;8.30;99.90
41664;DHT22;27353;50.906;7.248;2022-12-20T01:21:57;8.20;99.90
41664;DHT22;27353;50.906;7.248;2022-12-20T01:24:23;8.20;99.90
41664;DHT22;27353;50.906;7.248;2022-12-20T01:26:49;8.20;99.90
41664;DHT22;27353;50.906;7.248;2022-12-20T01:29:14;8.20;99.90
41664;DHT22;27353;50.906;7.248;2022-12-20T01:31:41;8.20;99.90
41664;DHT22;27353;50.906;7.248;2022-12-20T01:34:06;8.20;99.90
41664;DHT22;27353;50.906;7.248;2022-12-20T01:36:34;8.20;99.90
41664;DHT22;27353;50.906;7.248;2022-12-20T01:39:03;8.20;99.90
41664;DHT22;27353;50.906;7.248;2022-12-20T01:41:29;8.20;99.90
41664;DHT22;27353;50.906;7.248;2022-12-20T01:43:59;8.20;99.90
41664;DHT22;27353;50.906;7.248;2022-12-20T01:46:33;8.20;99.90
41664;DHT22;27353;50.906;7.248;2022-12-20T01:49:06;8.20;99.90
41664;DHT22;27353;50.906;7.248;2022-12-20T01:51:36;8.10;99.90
41664;DHT22;27353;50.906;7.248;2022-12-20T01:54:08;8.10;99.90
41664;DHT22;27353;50.906;7.248;2022-12-20T01:56:35;8.10;99.90
41664;DHT22;27353;50.906;7.248;2022-12-20T01:59:01;8.10;99.90
41664;DHT22;27353;50.906;7.248;2022-12-20T02:01:27;8.10;99.90
41664;DHT22;27353;50.906;7.248;2022-12-20T02:03:54;8.10;99.90
41664;DHT22;27353;50.906;7.248;2022-12-20T02:06:22;8.00;99.90
41664;DHT22;27353;50.906;7.248;2022-12-20T02:08:49;8.00;99.90
41664;DHT22;27353;50.906;7.248;2022-12-20T02:20:45;8.00;99.90
41664;DHT22;27353;50.906;7.248;2022-12-20T02:26:18;8.10;99.90
41664;DHT22;27353;50.906;7.248;2022-12-20T02:31:53;8.10;99.90
41664;DHT22;27353;50.906;7.248;2022-12-20T02:34:21;8.20;99.90
41664;DHT22;27353;50.906;7.248;2022-12-20T02:36:49;8.20;99.90
41664;DHT22;27353;50.906;7.248;2022-12-20T02:39:15;8.20;99.90
41664;DHT22;27353;50.906;7.248;2022-12-20T02:41:44;8.20;99.90
41664;DHT22;27353;50.906;7.248;2022-12-20T02:44:14;8.20;99.90
41664;DHT22;27353;50.906;7.248;2022-12-20T02:47:02;8.20;99.90
41664;DHT22;27353;50.906;7.248;2022-12-20T02:49:31;8.30;99.90
41664;DHT22;27353;50.906;7.248;2022-12-20T02:52:00;8.40;99.90
41664;DHT22;27353;50.906;7.248;2022-12-20T02:54:26;8.40;99.90
41664;DHT22;27353;50.906;7.248;2022-12-20T02:57:13;8.40;99.90
41664;DHT22;27353;50.906;7.248;2022-12-20T02:59:48;8.40;99.90
41664;DHT22;27353;50.906;7.248;2022-12-20T03:02:15;8.40;99.90
41664;DHT22;27353;50.906;7.248;2022-12-20T03:04:42;8.50;99.90
41664;DHT22;27353;50.906;7.248;2022-12-20T03:07:11;8.50;99.90
41664;DHT22;27353;50.906;7.248;2022-12-20T03:09:40;8.50;99.90
41664;DHT22;27353;50.906;7.248;2022-12-20T03:12:07;8.50;99.90
41664;DHT22;27353;50.906;7.248;2022-12-20T03:14:33;8.50;99.90
41664;DHT22;27353;50.906;7.248;2022-12-20T03:16:58;8.50;99.90
41664;DHT22;27353;50.906;7.248;2022-12-20T03:19:24;8.40;99.90
41664;DHT22;27353;50.906;7.248;2022-12-20T03:21:50;8.40;99.90
41664;DHT22;27353;50.906;7.248;2022-12-20T03:24:15;8.50;99.90
41664;DHT22;27353;50.906;7.248;2022-12-20T03:26:42;8.50;99.90
41664;DHT22;27353;50.906;7.248;2022-12-20T03:29:08;8.40;99.90
41664;DHT22;27353;50.906;7.248;2022-12-20T03:31:34;8.50;99.90
41664;DHT22;27353;50.906;7.248;2022-12-20T03:34:00;8.50;99.90
41664;DHT22;27353;50.906;7.248;2022-12-20T03:36:26;8.50;99.90
41664;DHT22;27353;50.906;7.248;2022-12-20T03:38:52;8.50;99.90
41664;DHT22;27353;50.906;7.248;2022-12-20T03:41:20;8.40;99.90
41664;DHT22;27353;50.906;7.248;2022-12-20T03:43:46;8.40;99.90
41664;DHT22;27353;50.906;7.248;2022-12-20T03:46:12;8.40;99.90
41664;DHT22;27353;50.906;7.248;2022-12-20T03:48:38;8.40;99.90
41664;DHT22;27353;50.906;7.248;2022-12-20T03:51:04;8.40;99.90
41664;DHT22;27353;50.906;7.248;2022-12-20T03:53:30;8.40;99.90
41664;DHT22;27353;50.906;7.248;2022-12-20T03:55:55;8.40;99.90
41664;DHT22;27353;50.906;7.248;2022-12-20T03:58:21;8.40;99.90
41664;DHT22;27353;50.906;7.248;2022-12-20T04:00:47;8.40;99.90
41664;DHT22;27353;50.906;7.248;2022-12-20T04:03:12;8.50;99.90
41664;DHT22;27353;50.906;7.248;2022-12-20T04:05:38;8.50;99.90
41664;DHT22;27353;50.906;7.248;2022-12-20T04:08:04;8.60;99.90
41664;DHT22;27353;50.906;7.248;2022-12-20T04:10:29;8.60;99.90
41664;DHT22;27353;50.906;7.248;2022-12-20T04:12:55;8.50;99.90
41664;DHT22;27353;50.906;7.248;2022-12-20T04:15:21;8.50;99.90
41664;DHT22;27353;50.906;7.248;2022-12-20T04:17:46;8.50;99.90
41664;DHT22;27353;50.906;7.248;2022-12-20T04:20:14;8.50;99.90
41664;DHT22;27353;50.906;7.248;2022-12-20T04:22:50;8.60;99.90
41664;DHT22;27353;50.906;7.248;2022-12-20T04:25:19;8.60;99.90
41664;DHT22;27353;50.906;7.248;2022-12-20T04:27:45;8.50;99.90
41664;DHT22;27353;50.906;7.248;2022-12-20T04:30:11;8.60;99.90
41664;DHT22;27353;50.906;7.248;2022-12-20T04:32:37;8.60;99.90
41664;DHT22;27353;50.906;7.248;2022-12-20T04:35:03;8.60;99.90
41664;DHT22;27353;50.906;7.248;2022-12-20T04:37:30;8.60;99.90
41664;DHT22;27353;50.906;7.248;2022-12-20T04:39:56;8.60;99.90
41664;DHT22;27353;50.906;7.248;2022-12-20T04:42:23;8.60;99.90
41664;DHT22;27353;50.906;7.248;2022-12-20T04:44:48;8.60;99.90
41664;DHT22;27353;50.906;7.248;2022-12-20T04:47:14;8.60;99.90
41664;DHT22;27353;50.906;7.248;2022-12-20T04:49:39;8.50;99.90
41664;DHT22;27353;50.906;7.248;2022-12-20T04:52:05;8.50;99.90
41664;DHT22;27353;50.906;7.248;2022-12-20T04:54:49;8.50;99.90
41664;DHT22;27353;50.906;7.248;2022-12-20T04:57:14;8.50;99.90
41664;DHT22;27353;50.906;7.248;2022-12-20T04:59:40;8.50;99.90
41664;DHT22;27353;50.906;7.248;2022-12-20T05:02:06;8.50;99.90
41664;DHT22;27353;50.906;7.248;2022-12-20T05:04:31;8.40;99.90
41664;DHT22;27353;50.906;7.248;2022-12-20T05:06:57;8.50;99.90
41664;DHT22;27353;50.906;7.248;2022-12-20T05:09:23;8.50;99.90
41664;DHT22;27353;50.906;7.248;2022-12-20T05:11:48;8.50;99.90
41664;DHT22;27353;50.906;7.248;2022-12-20T05:14:14;8.50;99.90
41664;DHT22;27353;50.906;7.248;2022-12-20T05:16:39;8.50;99.90
41664;DHT22;27353;50.906;7.248;2022-12-20T05:19:05;8.50;99.90
41664;DHT22;27353;50.906;7.248;2022-12-20T05:21:31;8.50;99.90
41664;DHT22;27353;50.906;7.248;2022-12-20T05:24:16;8.40;99.90
41664;DHT22;27353;50.906;7.248;2022-12-20T05:27:00;8.40;99.90
41664;DHT22;27353;50.906;7.248;2022-12-20T05:29:26;8.40;99.90
41664;DHT22;27353;50.906;7.248;2022-12-20T05:31:52;8.40;99.90
41664;DHT22;27353;50.906;7.248;2022-12-20T05:34:18;8.40;99.90
41664;DHT22;27353;50.906;7.248;2022-12-20T05:36:44;8.40;99.90
41664;DHT22;27353;50.906;7.248;2022-12-20T05:39:09;8.40;99.90
41664;DHT22;27353;50.906;7.248;2022-12-20T05:41:36;8.50;99.90
41664;DHT22;27353;50.906;7.248;2022-12-20T05:44:02;8.50;99.90
41664;DHT22;27353;50.906;7.248;2022-12-20T05:46:28;8.50;99.90
41664;DHT22;27353;50.906;7.248;2022-12-20T05:48:54;8.50;99.90
41664;DHT22;27353;50.906;7.248;2022-12-20T05:51:20;8.50;99.90
41664;DHT22;27353;50.906;7.248;2022-12-20T05:53:45;8.50;99.90
41664;DHT22;27353;50.906;7.248;2022-12-20T05:56:11;8.40;99.90
41664;DHT22;27353;50.906;7.248;2022-12-20T05:58:37;8.40;99.90
41664;DHT22;27353;50.906;7.248;2022-12-20T06:01:05;8.40;99.90
41664;DHT22;27353;50.906;7.248;2022-12-20T06:03:30;8.40;99.90
41664;DHT22;27353;50.906;7.248;2022-12-20T06:05:56;8.40;99.90
41664;DHT22;27353;50.906;7.248;2022-12-20T06:08:22;8.40;99.90
41664;DHT22;27353;50.906;7.248;2022-12-20T06:10:49;8.40;99.90
41664;DHT22;27353;50.906;7.248;2022-12-20T06:13:15;8.40;99.90
41664;DHT22;27353;50.906;7.248;2022-12-20T06:15:40;8.40;99.90
41664;DHT22;27353;50.906;7.248;2022-12-20T06:18:06;8.40;99.90
41664;DHT22;27353;50.906;7.248;2022-12-20T06:20:33;8.40;99.90
41664;DHT22;27353;50.906;7.248;2022-12-20T06:22:59;8.40;99.90
41664;DHT22;27353;50.906;7.248;2022-12-20T06:25:24;8.40;99.90
41664;DHT22;27353;50.906;7.248;2022-12-20T06:27:50;8.40;99.90
41664;DHT22;27353;50.906;7.248;2022-12-20T06:30:16;8.50;99.90
41664;DHT22;27353;50.906;7.248;2022-12-20T06:32:42;8.50;99.90
41664;DHT22;27353;50.906;7.248;2022-12-20T06:35:08;8.60;99.90
41664;DHT22;27353;50.906;7.248;2022-12-20T06:37:33;8.60;99.90
41664;DHT22;27353;50.906;7.248;2022-12-20T06:40:00;8.50;99.90
41664;DHT22;27353;50.906;7.248;2022-12-20T06:42:26;8.50;99.90
41664;DHT22;27353;50.906;7.248;2022-12-20T06:44:52;8.60;99.90
41664;DHT22;27353;50.906;7.248;2022-12-20T06:47:17;8.60;99.90
41664;DHT22;27353;50.906;7.248;2022-12-20T06:49:43;8.60;99.90
41664;DHT22;27353;50.906;7.248;2022-12-20T06:52:08;8.60;99.90
41664;DHT22;27353;50.906;7.248;2022-12-20T06:54:34;8.60;99.90
41664;DHT22;27353;50.906;7.248;2022-12-20T06:56:59;8.50;99.90
41664;DHT22;27353;50.906;7.248;2022-12-20T06:59:25;8.50;99.90
41664;DHT22;27353;50.906;7.248;2022-12-20T07:01:51;8.50;99.90
41664;DHT22;27353;50.906;7.248;2022-12-20T07:04:16;8.60;99.90
41664;DHT22;27353;50.906;7.248;2022-12-20T07:06:42;8.60;99.90
41664;DHT22;27353;50.906;7.248;2022-12-20T07:09:07;8.60;99.90
41664;DHT22;27353;50.906;7.248;2022-12-20T07:11:33;8.60;99.90
41664;DHT22;27353;50.906;7.248;2022-12-20T07:13:59;8.60;99.90
41664;DHT22;27353;50.906;7.248;2022-12-20T07:16:25;8.60;99.90
41664;DHT22;27353;50.906;7.248;2022-12-20T07:18:52;8.60;99.90
41664;DHT22;27353;50.906;7.248;2022-12-20T07:21:18;8.60;99.90
41664;DHT22;27353;50.906;7.248;2022-12-20T07:23:45;8.60;99.90
41664;DHT22;27353;50.906;7.248;2022-12-20T07:26:11;8.60;99.90
41664;DHT22;27353;50.906;7.248;2022-12-20T07:28:38;8.60;99.90
41664;DHT22;27353;50.906;7.248;2022-12-20T07:31:04;8.60;99.90
41664;DHT22;27353;50.906;7.248;2022-12-20T07:33:30;8.60;99.90
41664;DHT22;27353;50.906;7.248;2022-12-20T07:36:10;8.60;99.90
41664;DHT22;27353;50.906;7.248;2022-12-20T07:38:36;8.50;99.90
41664;DHT22;27353;50.906;7.248;2022-12-20T07:41:12;8.50;99.90
41664;DHT22;27353;50.906;7.248;2022-12-20T07:43:38;8.50;99.90
41664;DHT22;27353;50.906;7.248;2022-12-20T07:46:05;8.50;99.90
41664;DHT22;27353;50.906;7.248;2022-12-20T07:48:31;8.50;99.90
41664;DHT22;27353;50.906;7.248;2022-12-20T07:51:02;8.60;99.90
41664;DHT22;27353;50.906;7.248;2022-12-20T07:53:29;8.60;99.90
41664;DHT22;27353;50.906;7.248;2022-12-20T07:55:57;8.60;99.90
41664;DHT22;27353;50.906;7.248;2022-12-20T07:58:24;8.70;99.90
41664;DHT22;27353;50.906;7.248;2022-12-20T08:00:51;8.60;99.90
41664;DHT22;27353;50.906;7.248;2022-12-20T08:03:20;8.70;99.90
41664;DHT22;27353;50.906;7.248;2022-12-20T08:05:50;8.70;99.90
41664;DHT22;27353;50.906;7.248;2022-12-20T08:08:17;8.70;99.90
41664;DHT22;27353;50.906;7.248;2022-12-20T08:10:44;8.70;99.90
41664;DHT22;27353;50.906;7.248;2022-12-20T08:13:11;8.80;99.90
41664;DHT22;27353;50.906;7.248;2022-12-20T08:15:37;8.80;99.90
41664;DHT22;27353;50.906;7.248;2022-12-20T08:18:03;8.80;99.90
41664;DHT22;27353;50.906;7.248;2022-12-20T08:20:30;8.70;99.90
41664;DHT22;27353;50.906;7.248;2022-12-20T08:22:56;8.70;99.90
41664;DHT22;27353;50.906;7.248;2022-12-20T08:25:22;8.80;99.90
41664;DHT22;27353;50.906;7.248;2022-12-20T08:27:48;8.70;99.90
41664;DHT22;27353;50.906;7.248;2022-12-20T08:30:14;8.70;99.90
41664;DHT22;27353;50.906;7.248;2022-12-20T08:32:40;8.70;99.90
41664;DHT22;27353;50.906;7.248;2022-12-20T08:35:06;8.70;99.90
41664;DHT22;27353;50.906;7.248;2022-12-20T08:37:32;8.70;99.90
41664;DHT22;27353;50.906;7.248;2022-12-20T08:39:58;8.80;99.90
41664;DHT22;27353;50.906;7.248;2022-12-20T08:42:25;8.80;99.90
41664;DHT22;27353;50.906;7.248;2022-12-20T08:44:51;8.80;99.90
41664;DHT22;27353;50.906;7.248;2022-12-20T08:47:16;8.90;99.90
41664;DHT22;27353;50.906;7.248;2022-12-20T08:49:42;9.00;99.90
41664;DHT22;27353;50.906;7.248;2022-12-20T08:52:08;8.90;99.90
41664;DHT22;27353;50.906;7.248;2022-12-20T08:54:33;9.00;99.90
41664;DHT22;27353;50.906;7.248;2022-12-20T08:56:59;9.00;99.90
41664;DHT22;27353;50.906;7.248;2022-12-20T08:59:25;9.00;99.90
41664;DHT22;27353;50.906;7.248;2022-12-20T09:01:51;9.00;99.90
41664;DHT22;27353;50.906;7.248;2022-12-20T09:04:17;9.00;99.90
41664;DHT22;27353;50.906;7.248;2022-12-20T09:06:43;9.00;99.90
41664;DHT22;27353;50.906;7.248;2022-12-20T09:09:09;9.00;99.90
41664;DHT22;27353;50.906;7.248;2022-12-20T09:11:34;9.00;99.90
41664;DHT22;27353;50.906;7.248;2022-12-20T09:14:00;9.00;99.90
41664;DHT22;27353;50.906;7.248;2022-12-20T09:16:29;9.00;99.90
41664;DHT22;27353;50.906;7.248;2022-12-20T09:18:57;9.00;99.90
41664;DHT22;27353;50.906;7.248;2022-12-20T09:21:23;9.00;99.90
41664;DHT22;27353;50.906;7.248;2022-12-20T09:23:55;9.00;99.90
41664;DHT22;27353;50.906;7.248;2022-12-20T09:26:22;9.00;99.90
41664;DHT22;27353;50.906;7.248;2022-12-20T09:28:48;9.10;99.90
41664;DHT22;27353;50.906;7.248;2022-12-20T09:31:17;9.10;99.90
41664;DHT22;27353;50.906;7.248;2022-12-20T09:33:43;9.10;99.90
41664;DHT22;27353;50.906;7.248;2022-12-20T09:36:14;9.20;99.90
41664;DHT22;27353;50.906;7.248;2022-12-20T09:38:41;9.20;99.90
41664;DHT22;27353;50.906;7.248;2022-12-20T09:41:37;9.20;99.90
41664;DHT22;27353;50.906;7.248;2022-12-20T09:44:10;9.20;99.90
41664;DHT22;27353;50.906;7.248;2022-12-20T09:46:38;9.20;99.90
41664;DHT22;27353;50.906;7.248;2022-12-20T09:49:04;9.20;99.90
41664;DHT22;27353;50.906;7.248;2022-12-20T09:59:59;9.20;99.90
41664;DHT22;27353;50.906;7.248;2022-12-20T10:02:25;9.30;99.90
41664;DHT22;27353;50.906;7.248;2022-12-20T10:04:53;9.30;99.90
41664;DHT22;27353;50.906;7.248;2022-12-20T10:07:29;9.30;99.90
41664;DHT22;27353;50.906;7.248;2022-12-20T10:13:50;9.30;99.90
41664;DHT22;27353;50.906;7.248;2022-12-20T10:21:49;9.30;99.90
41664;DHT22;27353;50.906;7.248;2022-12-20T10:24:17;9.20;99.90
41664;DHT22;27353;50.906;7.248;2022-12-20T10:26:45;9.20;99.90
41664;DHT22;27353;50.906;7.248;2022-12-20T10:29:13;9.20;99.90
41664;DHT22;27353;50.906;7.248;2022-12-20T10:31:39;9.20;99.90
41664;DHT22;27353;50.906;7.248;2022-12-20T10:34:05;9.20;99.90
41664;DHT22;27353;50.906;7.248;2022-12-20T10:36:35;9.10;99.90
41664;DHT22;27353;50.906;7.248;2022-12-20T10:39:07;9.20;99.90
41664;DHT22;27353;50.906;7.248;2022-12-20T10:44:24;9.20;99.90
41664;DHT22;27353;50.906;7.248;2022-12-20T10:46:52;9.20;99.90
41664;DHT22;27353;50.906;7.248;2022-12-20T10:49:35;9.10;99.90
41664;DHT22;27353;50.906;7.248;2022-12-20T10:52:11;9.20;99.90
41664;DHT22;27353;50.906;7.248;2022-12-20T10:54:45;9.20;99.90
41664;DHT22;27353;50.906;7.248;2022-12-20T10:59:43;9.20;99.90
41664;DHT22;27353;50.906;7.248;2022-12-20T11:05:03;9.30;99.90
41664;DHT22;27353;50.906;7.248;2022-12-20T11:07:32;9.30;99.90
41664;DHT22;27353;50.906;7.248;2022-12-20T11:10:23;9.30;99.90
41664;DHT22;27353;50.906;7.248;2022-12-20T11:12:56;9.30;99.90
41664;DHT22;27353;50.906;7.248;2022-12-20T11:15:25;9.30;99.90
41664;DHT22;27353;50.906;7.248;2022-12-20T11:18:04;9.40;99.90
41664;DHT22;27353;50.906;7.248;2022-12-20T11:20:35;9.40;99.90
41664;DHT22;27353;50.906;7.248;2022-12-20T11:36:25;9.50;99.90
41664;DHT22;27353;50.906;7.248;2022-12-20T11:39:13;9.40;99.90
41664;DHT22;27353;50.906;7.248;2022-12-20T11:44:57;9.40;99.90
41664;DHT22;27353;50.906;7.248;2022-12-20T11:52:53;9.40;99.90
41664;DHT22;27353;50.906;7.248;2022-12-20T12:00:35;9.40;99.90
41664;DHT22;27353;50.906;7.248;2022-12-20T12:03:36;9.40;99.90
41664;DHT22;27353;50.906;7.248;2022-12-20T12:06:19;9.40;99.90
41664;DHT22;27353;50.906;7.248;2022-12-20T12:08:51;9.50;99.90
41664;DHT22;27353;50.906;7.248;2022-12-20T12:13:49;9.50;99.90
41664;DHT22;27353;50.906;7.248;2022-12-20T12:16:23;9.60;99.90
41664;DHT22;27353;50.906;7.248;2022-12-20T12:18:50;9.60;99.90
41664;DHT22;27353;50.906;7.248;2022-12-20T12:21:26;9.60;99.90
41664;DHT22;27353;50.906;7.248;2022-12-20T12:24:23;9.60;99.90
41664;DHT22;27353;50.906;7.248;2022-12-20T12:26:51;9.60;99.90
41664;DHT22;27353;50.906;7.248;2022-12-20T12:29:18;9.60;99.90
41664;DHT22;27353;50.906;7.248;2022-12-20T12:32:01;9.50;99.90
41664;DHT22;27353;50.906;7.248;2022-12-20T12:39:41;9.50;99.90
41664;DHT22;27353;50.906;7.248;2022-12-20T12:42:51;9.50;99.90
41664;DHT22;27353;50.906;7.248;2022-12-20T12:45:40;9.60;99.90
41664;DHT22;27353;50.906;7.248;2022-12-20T12:50:54;9.60;99.90
41664;DHT22;27353;50.906;7.248;2022-12-20T13:01:46;9.70;99.90
41664;DHT22;27353;50.906;7.248;2022-12-20T13:09:21;9.70;99.90
41664;DHT22;27353;50.906;7.248;2022-12-20T13:15:00;9.60;99.90
41664;DHT22;27353;50.906;7.248;2022-12-20T13:19:55;9.50;99.90
41664;DHT22;27353;50.906;7.248;2022-12-20T13:22:25;9.50;99.90
41664;DHT22;27353;50.906;7.248;2022-12-20T13:25:00;9.50;99.90
41664;DHT22;27353;50.906;7.248;2022-12-20T13:27:40;9.50;99.90
41664;DHT22;27353;50.906;7.248;2022-12-20T13:49:11;9.50;99.90
41664;DHT22;27353;50.906;7.248;2022-12-20T13:51:23;9.50;99.90
41664;DHT22;27353;50.906;7.248;2022-12-20T13:53:53;9.60;99.90
41664;DHT22;27353;50.906;7.248;2022-12-20T13:56:31;9.70;99.90
41664;DHT22;27353;50.906;7.248;2022-12-20T13:59:13;9.70;99.90
41664;DHT22;27353;50.906;7.248;2022-12-20T14:01:51;9.70;99.90
41664;DHT22;27353;50.906;7.248;2022-12-20T14:04:18;9.70;99.90
41664;DHT22;27353;50.906;7.248;2022-12-20T14:06:51;9.70;99.90
41664;DHT22;27353;50.906;7.248;2022-12-20T14:09:45;9.60;99.90
41664;DHT22;27353;50.906;7.248;2022-12-20T14:12:16;9.60;99.90
41664;DHT22;27353;50.906;7.248;2022-12-20T14:14:44;9.60;99.90
41664;DHT22;27353;50.906;7.248;2022-12-20T14:17:31;9.50;99.90
41664;DHT22;27353;50.906;7.248;2022-12-20T14:25:26;9.50;99.90
41664;DHT22;27353;50.906;7.248;2022-12-20T14:27:53;9.50;99.90
41664;DHT22;27353;50.906;7.248;2022-12-20T14:30:28;9.50;99.90
41664;DHT22;27353;50.906;7.248;2022-12-20T14:32:55;9.40;99.90
41664;DHT22;27353;50.906;7.248;2022-12-20T14:35:21;9.50;99.90
41664;DHT22;27353;50.906;7.248;2022-12-20T14:37:58;9.40;99.90
41664;DHT22;27353;50.906;7.248;2022-12-20T14:40:25;9.40;99.90
41664;DHT22;27353;50.906;7.248;2022-12-20T14:42:51;9.40;99.90
41664;DHT22;27353;50.906;7.248;2022-12-20T14:45:20;9.40;99.90
41664;DHT22;27353;50.906;7.248;2022-12-20T14:50:30;9.60;99.90
41664;DHT22;27353;50.906;7.248;2022-12-20T14:52:57;9.70;99.90
41664;DHT22;27353;50.906;7.248;2022-12-20T14:55:35;9.70;99.90
41664;DHT22;27353;50.906;7.248;2022-12-20T14:58:05;9.70;99.90
41664;DHT22;27353;50.906;7.248;2022-12-20T15:01:02;9.70;99.90
41664;DHT22;27353;50.906;7.248;2022-12-20T15:03:28;9.60;99.90
41664;DHT22;27353;50.906;7.248;2022-12-20T15:05:56;9.60;99.90
41664;DHT22;27353;50.906;7.248;2022-12-20T15:11:00;9.60;99.90
41664;DHT22;27353;50.906;7.248;2022-12-20T15:13:38;9.60;99.90
41664;DHT22;27353;50.906;7.248;2022-12-20T15:16:18;9.60;99.90
41664;DHT22;27353;50.906;7.248;2022-12-20T15:18:48;9.60;99.90
41664;DHT22;27353;50.906;7.248;2022-12-20T15:21:18;9.60;99.90
41664;DHT22;27353;50.906;7.248;2022-12-20T15:23:49;9.60;99.90
41664;DHT22;27353;50.906;7.248;2022-12-20T15:26:22;9.60;99.90
41664;DHT22;27353;50.906;7.248;2022-12-20T15:28:48;9.50;99.90
41664;DHT22;27353;50.906;7.248;2022-12-20T15:31:17;9.40;99.90
41664;DHT22;27353;50.906;7.248;2022-12-20T15:33:44;9.40;99.90
41664;DHT22;27353;50.906;7.248;2022-12-20T15:36:21;9.40;99.90
41664;DHT22;27353;50.906;7.248;2022-12-20T15:38:48;9.40;99.90
41664;DHT22;27353;50.906;7.248;2022-12-20T15:41:26;9.30;99.90
41664;DHT22;27353;50.906;7.248;2022-12-20T15:43:57;9.30;99.90
41664;DHT22;27353;50.906;7.248;2022-12-20T15:46:25;9.30;99.90
41664;DHT22;27353;50.906;7.248;2022-12-20T15:48:51;9.30;99.90
41664;DHT22;27353;50.906;7.248;2022-12-20T15:51:23;9.30;99.90
41664;DHT22;27353;50.906;7.248;2022-12-20T15:53:51;9.30;99.90
41664;DHT22;27353;50.906;7.248;2022-12-20T15:56:19;9.30;99.90
41664;DHT22;27353;50.906;7.248;2022-12-20T15:58:46;9.30;99.90
41664;DHT22;27353;50.906;7.248;2022-12-20T16:01:19;9.30;99.90
41664;DHT22;27353;50.906;7.248;2022-12-20T16:03:45;9.30;99.90
41664;DHT22;27353;50.906;7.248;2022-12-20T16:06:11;9.30;99.90
41664;DHT22;27353;50.906;7.248;2022-12-20T16:08:41;9.40;99.90
41664;DHT22;27353;50.906;7.248;2022-12-20T16:11:21;9.40;99.90
41664;DHT22;27353;50.906;7.248;2022-12-20T16:13:47;9.40;99.90
41664;DHT22;27353;50.906;7.248;2022-12-20T16:16:20;9.40;99.90
41664;DHT22;27353;50.906;7.248;2022-12-20T16:18:45;9.40;99.90
41664;DHT22;27353;50.906;7.248;2022-12-20T16:23:45;9.50;99.90
41664;DHT22;27353;50.906;7.248;2022-12-20T16:26:12;9.40;99.90
41664;DHT22;27353;50.906;7.248;2022-12-20T16:28:38;9.40;99.90
41664;DHT22;27353;50.906;7.248;2022-12-20T16:31:27;9.40;99.90
41664;DHT22;27353;50.906;7.248;2022-12-20T16:33:54;9.50;99.90
41664;DHT22;27353;50.906;7.248;2022-12-20T16:36:20;9.60;99.90
41664;DHT22;27353;50.906;7.248;2022-12-20T16:38:47;9.60;99.90
41664;DHT22;27353;50.906;7.248;2022-12-20T16:41:21;9.50;99.90
41664;DHT22;27353;50.906;7.248;2022-12-20T16:43:47;9.60;99.90
41664;DHT22;27353;50.906;7.248;2022-12-20T16:46:16;9.60;99.90
41664;DHT22;27353;50.906;7.248;2022-12-20T16:48:42;9.70;99.90
41664;DHT22;27353;50.906;7.248;2022-12-20T16:51:32;9.70;99.90
41664;DHT22;27353;50.906;7.248;2022-12-20T16:54:03;9.80;99.90
41664;DHT22;27353;50.906;7.248;2022-12-20T16:56:29;9.70;99.90
41664;DHT22;27353;50.906;7.248;2022-12-20T16:58:56;9.80;99.90
41664;DHT22;27353;50.906;7.248;2022-12-20T17:01:33;9.70;99.90
41664;DHT22;27353;50.906;7.248;2022-12-20T17:04:00;9.80;99.90
41664;DHT22;27353;50.906;7.248;2022-12-20T17:06:26;9.80;99.90
41664;DHT22;27353;50.906;7.248;2022-12-20T17:08:51;9.80;99.90
41664;DHT22;27353;50.906;7.248;2022-12-20T17:11:26;9.80;99.90
41664;DHT22;27353;50.906;7.248;2022-12-20T17:13:54;9.80;99.90
41664;DHT22;27353;50.906;7.248;2022-12-20T17:16:21;9.70;99.90
41664;DHT22;27353;50.906;7.248;2022-12-20T17:18:48;9.70;99.90
41664;DHT22;27353;50.906;7.248;2022-12-20T17:21:36;9.70;99.90
41664;DHT22;27353;50.906;7.248;2022-12-20T17:24:04;9.70;99.90
41664;DHT22;27353;50.906;7.248;2022-12-20T17:26:32;9.70;99.90
41664;DHT22;27353;50.906;7.248;2022-12-20T17:28:58;9.60;99.90
41664;DHT22;27353;50.906;7.248;2022-12-20T17:31:35;9.60;99.90
41664;DHT22;27353;50.906;7.248;2022-12-20T17:34:25;9.60;99.90
41664;DHT22;27353;50.906;7.248;2022-12-20T17:36:53;9.60;99.90
41664;DHT22;27353;50.906;7.248;2022-12-20T17:39:20;9.70;99.90
41664;DHT22;27353;50.906;7.248;2022-12-20T17:41:46;9.70;99.90
41664;DHT22;27353;50.906;7.248;2022-12-20T17:44:20;9.70;99.90
41664;DHT22;27353;50.906;7.248;2022-12-20T17:46:46;9.70;99.90
41664;DHT22;27353;50.906;7.248;2022-12-20T17:49:13;9.70;99.90
41664;DHT22;27353;50.906;7.248;2022-12-20T17:51:38;9.70;99.90
41664;DHT22;27353;50.906;7.248;2022-12-20T17:54:04;9.70;99.90
41664;DHT22;27353;50.906;7.248;2022-12-20T17:56:32;9.60;99.90
41664;DHT22;27353;50.906;7.248;2022-12-20T17:58:59;9.60;99.90
41664;DHT22;27353;50.906;7.248;2022-12-20T18:01:31;9.60;99.90
41664;DHT22;27353;50.906;7.248;2022-12-20T18:03:58;9.60;99.90
41664;DHT22;27353;50.906;7.248;2022-12-20T18:06:25;9.60;99.90